createdAt,value
2018-01-19T00:00:41.383Z,99.90
2018-01-19T00:03:11.832Z,99.90
2018-01-19T00:05:41.575Z,99.90
2018-01-19T00:08:11.233Z,99.90
2018-01-19T00:10:40.937Z,99.90
2018-01-19T00:13:11.557Z,99.90
2018-01-19T00:15:42.045Z,99.90
2018-01-19T00:18:11.791Z,99.90
2018-01-19T00:20:41.480Z,99.90
2018-01-19T00:23:11.528Z,99.90
2018-01-19T00:25:41.973Z,99.90
2018-01-19T00:28:11.673Z,99.90
2018-01-19T00:30:41.377Z,99.90
2018-01-19T00:33:11.985Z,99.90
2018-01-19T00:35:41.665Z,99.90
2018-01-19T00:38:11.436Z,99.90
2018-01-19T00:40:41.098Z,99.90
2018-01-19T00:43:10.777Z,99.90
2018-01-19T00:45:40.458Z,99.90
2018-01-19T00:48:10.882Z,99.90
2018-01-19T00:50:41.334Z,99.90
2018-01-19T00:53:11.028Z,99.90
2018-01-19T00:55:40.715Z,99.90
2018-01-19T00:58:11.162Z,99.90
2018-01-19T01:00:40.962Z,99.90
2018-01-19T01:03:11.427Z,99.90
2018-01-19T01:05:41.128Z,99.90
2018-01-19T01:08:10.803Z,99.90
2018-01-19T01:10:41.287Z,99.90
2018-01-19T01:13:11.002Z,99.90
2018-01-19T01:15:40.696Z,99.90
2018-01-19T01:18:10.358Z,99.90
2018-01-19T01:20:40.794Z,99.90
2018-01-19T01:23:11.214Z,99.90
2018-01-19T01:25:41.685Z,99.90
2018-01-19T01:28:11.378Z,99.90
2018-01-19T01:30:41.070Z,99.90
2018-01-19T01:33:11.507Z,99.90
2018-01-19T01:35:42.024Z,99.90
2018-01-19T01:38:12.489Z,99.90
2018-01-19T01:40:42.179Z,99.90
2018-01-19T01:43:11.869Z,99.90
2018-01-19T01:45:42.831Z,99.90
2018-01-19T01:48:12.508Z,99.90
2018-01-19T01:50:42.959Z,99.90
2018-01-19T01:53:12.646Z,99.90
2018-01-19T01:55:43.078Z,99.90
2018-01-19T01:58:13.493Z,99.90
2018-01-19T02:00:43.969Z,99.90
2018-01-19T02:03:13.628Z,99.90
2018-01-19T02:05:44.065Z,99.90
2018-01-19T02:08:14.553Z,99.90
2018-01-19T02:10:44.219Z,99.90
2018-01-19T02:13:13.906Z,99.90
2018-01-19T02:15:44.370Z,99.90
2018-01-19T02:18:14.050Z,99.90
2018-01-19T02:20:44.517Z,99.90
2018-01-19T02:23:14.256Z,99.90
2018-01-19T02:25:43.937Z,99.90
2018-01-19T02:28:13.592Z,99.90
2018-01-19T02:30:44.055Z,99.90
2018-01-19T02:33:13.749Z,99.90
2018-01-19T02:35:43.433Z,99.90
2018-01-19T02:38:13.878Z,99.90
2018-01-19T02:40:43.566Z,99.90
2018-01-19T02:43:14.005Z,99.90
2018-01-19T02:45:44.769Z,99.90
2018-01-19T02:48:14.440Z,99.90
2018-01-19T02:50:44.893Z,99.90
2018-01-19T02:53:14.560Z,99.90
2018-01-19T02:55:45.007Z,99.90
2018-01-19T02:58:15.433Z,99.90
2018-01-19T03:00:45.918Z,99.90
2018-01-19T03:03:15.575Z,99.90
2018-01-19T03:05:46.012Z,99.90
2018-01-19T03:08:16.468Z,99.90
2018-01-19T03:10:46.142Z,99.90
2018-01-19T03:13:16.592Z,99.90
2018-01-19T03:15:46.326Z,99.90
2018-01-19T03:18:16.630Z,99.90
2018-01-19T03:20:46.300Z,99.90
2018-01-19T03:23:16.745Z,99.90
2018-01-19T03:25:46.451Z,99.90
2018-01-19T03:28:16.874Z,99.90
2018-01-19T03:30:46.550Z,99.90
2018-01-19T03:33:16.234Z,99.90
2018-01-19T03:35:45.912Z,99.90
2018-01-19T03:38:15.600Z,99.90
2018-01-19T03:40:46.557Z,99.90
2018-01-19T03:43:16.234Z,99.90
2018-01-19T03:45:45.902Z,99.90
2018-01-19T03:48:15.585Z,99.90
2018-01-19T03:50:45.257Z,99.90
2018-01-19T03:53:14.985Z,99.90
2018-01-19T03:55:45.503Z,99.90
2018-01-19T03:58:15.168Z,99.90
2018-01-19T04:00:44.880Z,99.90
2018-01-19T04:03:14.587Z,99.90
2018-01-19T04:05:44.265Z,99.90
2018-01-19T04:08:13.993Z,99.90
2018-01-19T04:10:43.671Z,99.90
2018-01-19T04:13:14.845Z,99.90
2018-01-19T04:15:44.522Z,99.90
2018-01-19T04:18:15.280Z,99.90
2018-01-19T04:20:45.753Z,99.90
2018-01-19T04:23:15.468Z,99.90
2018-01-19T04:25:45.153Z,99.90
2018-01-19T04:28:15.445Z,99.90
2018-01-19T04:30:45.138Z,99.60
2018-01-19T04:33:15.562Z,99.20
2018-01-19T04:35:46.626Z,99.00
2018-01-19T04:38:16.297Z,99.00
2018-01-19T04:40:46.154Z,99.20
2018-01-19T04:43:15.838Z,99.20
2018-01-19T04:45:46.713Z,98.90
2018-01-19T04:48:16.530Z,98.90
2018-01-19T04:50:46.209Z,98.50
2018-01-19T04:53:15.885Z,98.50
2018-01-19T04:55:45.613Z,98.80
2018-01-19T04:58:16.052Z,98.70
2018-01-19T05:00:46.480Z,98.40
2018-01-19T05:03:16.469Z,98.70
2018-01-19T05:05:46.930Z,97.50
2018-01-19T05:08:16.578Z,97.50
2018-01-19T05:10:46.240Z,97.50
2018-01-19T05:13:15.919Z,97.20
2018-01-19T05:15:45.591Z,97.20
2018-01-19T05:18:15.585Z,96.50
2018-01-19T05:20:45.364Z,96.30
2018-01-19T05:23:15.813Z,96.80
2018-01-19T05:25:45.492Z,96.80
2018-01-19T05:28:15.173Z,97.20
2018-01-19T05:30:45.171Z,97.00
2018-01-19T05:33:14.854Z,97.00
2018-01-19T05:35:45.263Z,96.80
2018-01-19T05:38:15.768Z,96.60
2018-01-19T05:40:45.435Z,96.60
2018-01-19T05:43:15.359Z,96.40
2018-01-19T05:45:45.102Z,95.90
2018-01-19T05:48:14.809Z,96.10
2018-01-19T05:50:44.490Z,95.70
2018-01-19T05:53:14.157Z,95.50
2018-01-19T05:55:44.648Z,95.40
2018-01-19T05:58:14.381Z,95.50
2018-01-19T06:00:44.825Z,96.40
2018-01-19T06:03:15.262Z,96.70
2018-01-19T06:05:44.941Z,96.70
2018-01-19T06:08:14.598Z,96.80
2018-01-19T06:10:44.407Z,96.40
2018-01-19T06:13:14.081Z,95.90
2018-01-19T06:15:44.518Z,96.40
2018-01-19T06:18:14.938Z,96.30
2018-01-19T06:20:45.367Z,96.10
2018-01-19T06:23:15.831Z,95.60
2018-01-19T06:25:45.507Z,95.90
2018-01-19T06:28:15.960Z,96.20
2018-01-19T06:30:45.661Z,96.20
2018-01-19T06:33:16.106Z,95.70
2018-01-19T06:35:45.802Z,95.70
2018-01-19T06:38:15.470Z,95.60
2018-01-19T06:40:45.165Z,95.40
2018-01-19T06:43:14.836Z,95.70
2018-01-19T06:45:44.533Z,95.70
2018-01-19T06:48:14.216Z,95.80
2018-01-19T06:50:44.698Z,95.40
2018-01-19T06:53:14.372Z,95.30
2018-01-19T06:55:44.051Z,95.40
2018-01-19T06:58:13.740Z,94.70
2018-01-19T07:00:43.506Z,93.90
2018-01-19T07:03:13.204Z,94.40
2018-01-19T07:05:42.908Z,94.00
2018-01-19T07:08:13.362Z,94.30
2018-01-19T07:10:43.049Z,94.30
2018-01-19T07:13:12.786Z,93.90
2018-01-19T07:15:42.462Z,94.10
2018-01-19T07:18:12.894Z,93.60
2018-01-19T07:20:42.554Z,93.60
2018-01-19T07:23:12.305Z,94.10
2018-01-19T07:25:42.759Z,94.10
2018-01-19T07:28:12.414Z,94.00
2018-01-19T07:30:42.176Z,94.30
2018-01-19T07:33:12.885Z,94.50
2018-01-19T07:35:43.336Z,94.60
2018-01-19T07:38:13.017Z,94.60
2018-01-19T07:40:43.648Z,95.60
2018-01-19T07:43:14.281Z,96.00
2018-01-19T07:45:44.916Z,96.00
2018-01-19T07:48:15.577Z,96.30
2018-01-19T07:50:45.278Z,95.90
2018-01-19T07:53:14.957Z,95.30
2018-01-19T07:55:45.431Z,95.20
2018-01-19T07:58:15.103Z,95.10
2018-01-19T08:00:46.228Z,95.40
2018-01-19T08:03:15.913Z,95.00
2018-01-19T08:05:45.576Z,95.30
2018-01-19T08:08:15.278Z,96.40
2018-01-19T08:10:45.772Z,96.50
2018-01-19T08:13:15.498Z,96.50
2018-01-19T08:15:45.163Z,96.60
2018-01-19T08:18:14.830Z,96.70
2018-01-19T08:20:44.563Z,96.80
2018-01-19T08:23:14.268Z,96.60
2018-01-19T08:25:43.953Z,96.90
2018-01-19T08:28:14.442Z,97.20
2018-01-19T08:30:44.129Z,97.20
2018-01-19T08:33:13.808Z,97.60
2018-01-19T08:35:44.265Z,97.90
2018-01-19T08:38:13.962Z,97.90
2018-01-19T08:40:43.669Z,97.60
2018-01-19T08:43:13.326Z,97.30
2018-01-19T08:45:43.092Z,97.30
2018-01-19T08:48:12.758Z,97.40
2018-01-19T08:50:42.428Z,97.60
2018-01-19T08:53:12.831Z,97.10
2018-01-19T08:55:42.523Z,97.10
2018-01-19T08:58:12.214Z,97.30
2018-01-19T09:00:41.886Z,97.60
2018-01-19T09:03:11.554Z,97.50
2018-01-19T09:05:41.994Z,98.10
2018-01-19T09:08:11.666Z,98.10
2018-01-19T09:10:41.356Z,98.30
2018-01-19T09:13:11.038Z,98.40
2018-01-19T09:15:40.694Z,98.50
2018-01-19T09:18:10.391Z,98.10
2018-01-19T09:20:40.079Z,98.50
2018-01-19T09:23:09.736Z,98.80
2018-01-19T09:25:40.196Z,98.90
2018-01-19T09:28:09.886Z,98.90
2018-01-19T09:30:39.613Z,99.60
2018-01-19T09:33:09.390Z,99.70
2018-01-19T09:35:39.829Z,99.90
2018-01-19T09:38:10.282Z,99.90
2018-01-19T09:40:39.989Z,99.90
2018-01-19T09:43:09.676Z,99.90
2018-01-19T09:45:39.346Z,99.90
2018-01-19T09:48:09.009Z,99.90
2018-01-19T09:50:38.810Z,99.90
2018-01-19T09:53:08.503Z,99.90
2018-01-19T09:55:38.953Z,99.90
2018-01-19T09:58:08.658Z,99.90
2018-01-19T10:00:38.358Z,99.90
2018-01-19T10:03:08.806Z,99.90
2018-01-19T10:05:38.490Z,99.90
2018-01-19T10:08:09.553Z,99.90
2018-01-19T10:10:39.227Z,99.90
2018-01-19T10:13:09.677Z,99.90
2018-01-19T10:15:39.733Z,99.90
2018-01-19T10:18:09.441Z,99.90
2018-01-19T10:20:39.102Z,99.90
2018-01-19T10:23:09.560Z,99.90
2018-01-19T10:25:39.238Z,99.90
2018-01-19T10:28:09.689Z,99.90
2018-01-19T10:30:39.378Z,99.90
2018-01-19T10:33:09.798Z,99.90
2018-01-19T10:35:40.289Z,99.00
2018-01-19T10:38:10.778Z,99.30
2018-01-19T10:40:40.493Z,99.30
2018-01-19T10:43:10.174Z,99.40
2018-01-19T10:45:40.606Z,99.90
2018-01-19T10:48:11.084Z,99.90
2018-01-19T10:50:40.773Z,99.90
2018-01-19T10:53:10.439Z,99.90
2018-01-19T10:55:40.942Z,99.90
2018-01-19T10:58:10.613Z,99.90
2018-01-19T11:00:40.290Z,99.90
2018-01-19T11:03:10.726Z,99.90
2018-01-19T11:05:41.198Z,99.90
2018-01-19T11:08:10.865Z,99.90
2018-01-19T11:10:40.558Z,99.90
2018-01-19T11:13:11.022Z,99.90
2018-01-19T11:15:40.728Z,99.90
2018-01-19T11:18:10.509Z,99.90
2018-01-19T11:20:41.038Z,99.90
2018-01-19T11:23:11.499Z,99.90
2018-01-19T11:25:41.341Z,99.90
2018-01-19T11:28:11.090Z,99.90
2018-01-19T11:30:40.746Z,99.90
2018-01-19T11:33:10.441Z,99.90
2018-01-19T11:35:40.118Z,99.90
2018-01-19T11:38:10.575Z,99.90
2018-01-19T11:40:40.253Z,99.90
2018-01-19T11:43:10.690Z,99.90
2018-01-19T11:45:40.416Z,99.90
2018-01-19T11:48:10.119Z,99.90
2018-01-19T11:50:39.819Z,99.90
2018-01-19T11:53:09.532Z,99.90
2018-01-19T11:55:39.219Z,99.90
2018-01-19T11:58:09.667Z,99.90
2018-01-19T12:00:39.393Z,99.90
2018-01-19T12:03:09.117Z,99.90
2018-01-19T12:05:38.860Z,99.90
2018-01-19T12:08:08.625Z,99.90
2018-01-19T12:10:38.318Z,99.90
2018-01-19T12:13:08.774Z,99.90
2018-01-19T12:15:38.462Z,99.90
2018-01-19T12:18:08.217Z,99.90
2018-01-19T12:20:38.653Z,99.90
2018-01-19T12:23:08.353Z,99.90
2018-01-19T12:25:38.023Z,99.90
2018-01-19T12:28:07.722Z,99.90
2018-01-19T12:30:37.417Z,99.90
2018-01-19T12:33:07.868Z,99.90
2018-01-19T12:35:37.558Z,99.90
2018-01-19T12:38:07.239Z,99.90
2018-01-19T12:40:36.914Z,99.90
2018-01-19T12:43:06.606Z,99.90
2018-01-19T12:45:36.286Z,99.90
2018-01-19T12:48:06.735Z,99.90
2018-01-19T12:50:36.437Z,99.90
2018-01-19T12:53:06.154Z,99.90
2018-01-19T12:55:35.930Z,99.90
2018-01-19T12:58:05.616Z,99.90
2018-01-19T13:00:35.396Z,99.90
2018-01-19T13:03:05.104Z,99.90
2018-01-19T13:05:34.789Z,99.90
2018-01-19T13:10:39.062Z,99.90
2018-01-19T13:13:08.754Z,99.90
2018-01-19T13:15:38.441Z,99.90
2018-01-19T13:18:08.876Z,99.90
2018-01-19T13:20:38.566Z,99.90
2018-01-19T13:23:09.030Z,99.90
2018-01-19T13:25:38.720Z,99.90
2018-01-19T13:28:08.398Z,99.90
2018-01-19T13:30:38.061Z,99.90
2018-01-19T13:33:07.846Z,99.90
2018-01-19T13:35:37.516Z,99.90
2018-01-19T13:38:07.510Z,99.90
2018-01-19T13:40:37.935Z,99.90
2018-01-19T13:43:08.361Z,99.90
2018-01-19T13:45:38.548Z,99.90
2018-01-19T13:48:08.246Z,99.90
2018-01-19T13:50:38.706Z,99.90
2018-01-19T13:53:08.670Z,99.90
2018-01-19T13:55:38.418Z,99.90
2018-01-19T13:58:08.136Z,99.90
2018-01-19T14:00:37.957Z,99.90
2018-01-19T14:03:07.750Z,99.90
2018-01-19T14:05:37.475Z,99.90
2018-01-19T14:08:07.526Z,99.90
2018-01-19T14:10:37.240Z,99.90
2018-01-19T14:13:07.067Z,99.90
2018-01-19T14:15:36.782Z,99.90
2018-01-19T14:18:06.497Z,99.90
2018-01-19T14:20:37.025Z,99.90
2018-01-19T14:23:07.602Z,99.90
2018-01-19T14:25:37.424Z,99.90
2018-01-19T14:28:07.253Z,99.90
2018-01-19T14:30:37.046Z,99.90
2018-01-19T14:33:06.918Z,99.90
2018-01-19T14:35:37.494Z,99.90
2018-01-19T14:38:07.311Z,99.90
2018-01-19T14:40:37.159Z,99.90
2018-01-19T14:43:07.738Z,99.90
2018-01-19T14:45:37.563Z,99.90
2018-01-19T14:48:07.381Z,99.90
2018-01-19T14:50:37.211Z,99.90
2018-01-19T14:53:07.029Z,99.90
2018-01-19T14:55:37.529Z,99.90
2018-01-19T14:58:07.377Z,99.90
2018-01-19T15:00:37.994Z,99.90
2018-01-19T15:03:07.809Z,99.90
2018-01-19T15:05:37.672Z,99.90
2018-01-19T15:08:07.526Z,99.90
2018-01-19T15:10:37.370Z,99.90
2018-01-19T15:13:07.995Z,99.90
2018-01-19T15:15:38.550Z,99.90
2018-01-19T15:18:08.437Z,99.90
2018-01-19T15:20:39.019Z,99.90
2018-01-19T15:23:08.888Z,99.90
2018-01-19T15:25:39.720Z,99.90
2018-01-19T15:28:10.367Z,99.90
2018-01-19T15:30:40.154Z,99.90
2018-01-19T15:33:10.742Z,99.90
2018-01-19T15:35:40.514Z,99.90
2018-01-19T15:38:11.112Z,99.90
2018-01-19T15:40:40.900Z,99.90
2018-01-19T15:43:10.737Z,99.90
2018-01-19T15:45:42.394Z,99.90
2018-01-19T15:48:12.202Z,99.90
2018-01-19T15:50:42.018Z,99.90
2018-01-19T15:53:11.767Z,99.90
2018-01-19T15:55:41.543Z,99.90
2018-01-19T15:58:11.269Z,99.90
2018-01-19T16:00:42.330Z,99.90
2018-01-19T16:03:12.124Z,99.90
2018-01-19T16:05:42.623Z,99.90
2018-01-19T16:08:12.328Z,99.90
2018-01-19T16:10:42.070Z,99.90
2018-01-19T16:13:13.173Z,99.90
2018-01-19T16:15:42.882Z,99.90
2018-01-19T16:18:12.558Z,99.90
2018-01-19T16:20:42.254Z,99.90
2018-01-19T16:23:11.966Z,99.90
2018-01-19T16:25:41.666Z,99.90
2018-01-19T16:28:12.501Z,99.90
2018-01-19T16:30:42.965Z,99.90
2018-01-19T16:33:12.695Z,99.90
2018-01-19T16:35:42.854Z,99.90
2018-01-19T16:38:13.625Z,99.90
2018-01-19T16:40:44.089Z,99.90
2018-01-19T16:43:13.777Z,99.90
2018-01-19T16:45:43.469Z,99.90
2018-01-19T16:48:13.170Z,99.90
2018-01-19T16:50:42.850Z,99.90
2018-01-19T16:53:13.995Z,99.90
2018-01-19T16:55:44.477Z,99.90
2018-01-19T16:58:14.207Z,99.90
2018-01-19T17:00:43.883Z,99.90
2018-01-19T17:03:15.103Z,99.90
2018-01-19T17:05:44.810Z,99.90
2018-01-19T17:08:14.531Z,99.90
2018-01-19T17:10:44.204Z,99.90
2018-01-19T17:13:13.866Z,99.90
2018-01-19T17:15:43.545Z,99.90
2018-01-19T17:18:13.250Z,99.90
2018-01-19T17:20:43.885Z,99.90
2018-01-19T17:23:13.566Z,99.90
2018-01-19T17:25:43.250Z,99.90
2018-01-19T17:28:12.922Z,99.90
2018-01-19T17:30:42.622Z,99.90
2018-01-19T17:33:13.098Z,99.90
2018-01-19T17:35:42.786Z,99.90
2018-01-19T17:38:13.187Z,99.90
2018-01-19T17:40:43.622Z,99.90
2018-01-19T17:43:13.306Z,99.90
2018-01-19T17:45:43.787Z,99.90
2018-01-19T17:48:13.474Z,99.90
2018-01-19T17:50:43.334Z,99.90
2018-01-19T17:53:13.066Z,99.90
2018-01-19T17:55:43.544Z,99.90
2018-01-19T17:58:13.235Z,99.90
2018-01-19T18:00:42.929Z,99.90
2018-01-19T18:03:13.133Z,99.90
2018-01-19T18:05:43.670Z,99.90
2018-01-19T18:08:14.131Z,99.90
2018-01-19T18:10:43.820Z,99.90
2018-01-19T18:13:13.542Z,99.90
2018-01-19T18:15:43.207Z,99.90
2018-01-19T18:18:12.903Z,99.90
2018-01-19T18:20:42.638Z,99.90
2018-01-19T18:23:13.085Z,99.90
2018-01-19T18:25:42.750Z,99.90
2018-01-19T18:28:12.444Z,99.90
2018-01-19T18:30:42.134Z,99.90
2018-01-19T18:33:11.811Z,99.90
2018-01-19T18:35:42.254Z,99.90
2018-01-19T18:38:11.966Z,99.90
2018-01-19T18:40:41.654Z,99.90
2018-01-19T18:43:12.161Z,99.90
2018-01-19T18:45:41.818Z,99.90
2018-01-19T18:48:11.505Z,99.90
2018-01-19T18:50:41.249Z,99.90
2018-01-19T18:53:10.945Z,99.90
2018-01-19T18:55:40.619Z,99.90
2018-01-19T18:58:11.707Z,99.90
2018-01-19T19:00:41.456Z,99.90
2018-01-19T19:03:11.146Z,99.90
2018-01-19T19:05:40.850Z,99.90
2018-01-19T19:08:10.533Z,99.90
2018-01-19T19:10:40.198Z,99.90
2018-01-19T19:13:09.870Z,99.90
2018-01-19T19:15:39.529Z,99.90
2018-01-19T19:18:09.986Z,99.90
2018-01-19T19:20:39.666Z,99.90
2018-01-19T19:23:10.137Z,99.90
2018-01-19T19:25:39.798Z,99.90
2018-01-19T19:28:10.222Z,99.90
2018-01-19T19:30:40.645Z,99.90
2018-01-19T19:33:11.267Z,99.90
2018-01-19T19:35:41.010Z,99.90
2018-01-19T19:38:10.702Z,99.90
2018-01-19T19:40:41.203Z,99.90
2018-01-19T19:43:10.907Z,99.90
2018-01-19T19:45:40.626Z,99.90
2018-01-19T19:48:11.082Z,99.90
2018-01-19T19:50:41.558Z,99.90
2018-01-19T19:53:11.226Z,99.90
2018-01-19T19:55:41.679Z,99.90
2018-01-19T19:58:12.145Z,99.90
2018-01-19T20:00:41.838Z,99.90
2018-01-19T20:03:11.502Z,99.90
2018-01-19T20:05:41.915Z,99.90
2018-01-19T20:08:12.386Z,99.90
2018-01-19T20:10:42.062Z,99.90
2018-01-19T20:13:11.745Z,99.90
2018-01-19T20:15:41.426Z,99.90
2018-01-19T20:18:11.099Z,99.90
2018-01-19T20:20:40.765Z,99.90
2018-01-19T20:23:10.454Z,99.90
2018-01-19T20:25:40.166Z,99.90
2018-01-19T20:28:09.853Z,99.90
2018-01-19T20:30:39.574Z,99.90
2018-01-19T20:33:09.243Z,99.90
2018-01-19T20:35:39.747Z,99.90
2018-01-19T20:38:10.205Z,99.90
2018-01-19T20:40:39.896Z,99.90
2018-01-19T20:43:09.575Z,99.90
2018-01-19T20:45:39.293Z,99.90
2018-01-19T20:48:08.958Z,99.90
2018-01-19T20:50:38.638Z,99.90
2018-01-19T20:53:09.051Z,99.90
2018-01-19T20:55:39.493Z,99.90
2018-01-19T20:58:09.908Z,99.90
2018-01-19T21:00:40.428Z,99.90
2018-01-19T21:03:10.097Z,99.90
2018-01-19T21:05:39.784Z,99.90
2018-01-19T21:08:09.481Z,99.90
2018-01-19T21:10:39.172Z,99.90
2018-01-19T21:13:09.636Z,99.90
2018-01-19T21:15:39.346Z,99.90
2018-01-19T21:18:09.026Z,99.90
2018-01-19T21:20:39.457Z,99.90
2018-01-19T21:23:09.925Z,99.90
2018-01-19T21:25:39.582Z,99.90
2018-01-19T21:28:10.035Z,99.90
2018-01-19T21:30:39.717Z,99.90
2018-01-19T21:33:10.153Z,99.90
2018-01-19T21:35:40.572Z,99.90
2018-01-19T21:38:11.031Z,99.90
2018-01-19T21:40:40.738Z,99.90
2018-01-19T21:43:10.490Z,99.90
2018-01-19T21:45:40.162Z,99.90
2018-01-19T21:48:09.852Z,99.90
2018-01-19T21:50:39.533Z,99.90
2018-01-19T21:53:09.186Z,99.90
2018-01-19T21:55:38.873Z,99.90
2018-01-19T21:58:09.346Z,99.90
2018-01-19T22:00:39.820Z,99.90
2018-01-19T22:03:10.338Z,99.90
2018-01-19T22:05:40.782Z,99.90
2018-01-19T22:08:11.230Z,99.90
2018-01-19T22:10:40.917Z,99.90
2018-01-19T22:13:11.405Z,99.90
2018-01-19T22:15:41.092Z,99.90
2018-01-19T22:18:10.781Z,99.90
2018-01-19T22:20:40.490Z,99.90
2018-01-19T22:23:10.178Z,99.90
2018-01-19T22:25:40.800Z,99.90
2018-01-19T22:28:10.494Z,99.90
2018-01-19T22:30:40.155Z,99.90
2018-01-19T22:33:09.842Z,99.90
2018-01-19T22:35:39.523Z,99.90
2018-01-19T22:38:09.221Z,99.90
2018-01-19T22:40:38.910Z,99.90
2018-01-19T22:43:08.590Z,99.90
2018-01-19T22:45:38.277Z,99.90
2018-01-19T22:48:08.737Z,99.90
2018-01-19T22:50:38.485Z,99.90
2018-01-19T22:53:08.569Z,99.90
2018-01-19T22:55:38.246Z,99.90
2018-01-19T22:58:08.705Z,99.90
2018-01-19T23:00:38.394Z,99.90
2018-01-19T23:03:08.856Z,99.90
2018-01-19T23:05:39.077Z,99.90
2018-01-19T23:08:08.749Z,99.90
2018-01-19T23:10:38.444Z,99.90
2018-01-19T23:13:08.905Z,99.90
2018-01-19T23:15:38.611Z,99.90
2018-01-19T23:18:08.393Z,99.90
2018-01-19T23:20:38.829Z,99.90
2018-01-19T23:23:09.274Z,99.90
2018-01-19T23:25:38.977Z,99.90
2018-01-19T23:28:08.649Z,99.90
2018-01-19T23:30:38.319Z,99.90
2018-01-19T23:33:08.020Z,99.90
2018-01-19T23:35:37.801Z,99.90
2018-01-19T23:38:08.962Z,99.90
2018-01-19T23:40:39.370Z,99.90
2018-01-19T23:43:09.798Z,99.90
2018-01-19T23:45:40.252Z,99.90
2018-01-19T23:48:09.921Z,99.90
2018-01-19T23:50:39.605Z,99.90
2018-01-19T23:53:09.627Z,99.90
2018-01-19T23:55:39.314Z,99.90
2018-01-19T23:58:08.985Z,99.90
